createdAt,value
2023-03-12T00:00:20.358Z,3.10
2023-03-12T00:01:53.051Z,2.75
2023-03-12T00:03:25.886Z,2.90
2023-03-12T00:04:58.602Z,3.28
2023-03-12T00:06:31.615Z,2.90
2023-03-12T00:08:05.507Z,3.00
2023-03-12T00:09:39.420Z,2.72
2023-03-12T00:11:15.163Z,2.97
2023-03-12T00:12:47.219Z,2.70
2023-03-12T00:14:19.940Z,2.67
2023-03-12T00:15:52.704Z,2.78
2023-03-12T00:17:25.465Z,3.33
2023-03-12T00:18:58.152Z,5.93
2023-03-12T00:20:30.965Z,4.38
2023-03-12T00:22:03.736Z,3.90
2023-03-12T00:23:38.105Z,4.20
2023-03-12T00:25:14.790Z,4.90
2023-03-12T00:26:47.493Z,4.82
2023-03-12T00:28:20.238Z,4.30
2023-03-12T00:29:53.006Z,4.70
2023-03-12T00:31:27.588Z,4.53
2023-03-12T00:33:00.439Z,4.68
2023-03-12T00:34:33.101Z,4.30
2023-03-12T00:36:06.655Z,3.80
2023-03-12T00:37:39.617Z,4.00
2023-03-12T00:39:13.751Z,3.78
2023-03-12T00:40:46.606Z,4.45
2023-03-12T00:42:20.300Z,4.20
2023-03-12T00:43:53.653Z,3.95
2023-03-12T00:45:26.436Z,4.00
2023-03-12T00:46:59.124Z,3.80
2023-03-12T00:48:31.868Z,3.80
2023-03-12T00:50:05.431Z,3.58
2023-03-12T00:51:38.116Z,3.80
2023-03-12T00:53:09.890Z,2.97
2023-03-12T00:54:43.957Z,3.03
2023-03-12T00:56:16.707Z,3.00
2023-03-12T00:57:49.469Z,3.00
2023-03-12T00:59:22.285Z,2.55
2023-03-12T01:00:55.063Z,3.22
2023-03-12T01:02:27.964Z,2.92
2023-03-12T01:04:00.896Z,3.15
2023-03-12T01:05:37.518Z,2.47
2023-03-12T01:07:10.217Z,2.80
2023-03-12T01:08:43.089Z,3.97
2023-03-12T01:10:19.224Z,4.20
2023-03-12T01:11:51.922Z,3.05
2023-03-12T01:13:24.720Z,3.22
2023-03-12T01:14:57.458Z,3.10
2023-03-12T01:16:30.787Z,2.88
2023-03-12T01:18:02.596Z,2.97
2023-03-12T01:19:35.481Z,2.97
2023-03-12T01:21:08.404Z,2.78
2023-03-12T01:22:40.478Z,3.25
2023-03-12T01:24:13.228Z,3.50
2023-03-12T01:25:47.794Z,3.10
2023-03-12T01:27:20.650Z,3.30
2023-03-12T01:28:53.379Z,2.95
2023-03-12T01:30:26.605Z,2.92
2023-03-12T01:31:59.332Z,2.90
2023-03-12T01:33:32.015Z,5.57
2023-03-12T01:35:04.053Z,4.00
2023-03-12T01:36:37.011Z,3.95
2023-03-12T01:38:13.610Z,3.90
2023-03-12T01:39:45.458Z,3.13
2023-03-12T01:41:19.576Z,3.20
2023-03-12T01:42:56.819Z,3.03
2023-03-12T01:44:29.629Z,3.10
2023-03-12T01:46:28.774Z,3.20
2023-03-12T01:48:01.488Z,3.15
2023-03-12T01:49:35.517Z,3.78
2023-03-12T01:51:09.184Z,2.97
2023-03-12T01:52:42.454Z,3.20
2023-03-12T01:54:19.099Z,3.03
2023-03-12T01:55:51.402Z,3.00
2023-03-12T01:57:31.408Z,3.28
2023-03-12T01:59:08.796Z,2.85
2023-03-12T02:00:40.664Z,2.72
2023-03-12T02:02:15.167Z,3.15
2023-03-12T02:03:48.872Z,3.10
2023-03-12T02:05:29.953Z,2.80
2023-03-12T02:07:06.289Z,2.90
2023-03-12T02:08:41.333Z,3.47
2023-03-12T02:10:14.173Z,3.33
2023-03-12T02:11:47.081Z,3.13
2023-03-12T02:13:21.359Z,3.10
2023-03-12T02:14:54.284Z,3.20
2023-03-12T02:16:27.535Z,3.28
2023-03-12T02:18:00.323Z,3.10
2023-03-12T02:19:42.310Z,3.38
2023-03-12T02:21:17.798Z,3.38
2023-03-12T02:22:58.050Z,3.40
2023-03-12T02:24:37.876Z,3.50
2023-03-12T02:26:13.222Z,3.60
2023-03-12T02:27:46.895Z,3.30
2023-03-12T02:29:19.929Z,4.50
2023-03-12T02:30:56.974Z,3.95
2023-03-12T02:32:34.074Z,4.20
2023-03-12T02:34:05.940Z,5.78
2023-03-12T02:35:40.079Z,6.15
2023-03-12T02:37:12.792Z,6.22
2023-03-12T02:38:47.869Z,6.20
2023-03-12T02:40:25.455Z,7.18
2023-03-12T02:42:00.611Z,6.93
2023-03-12T02:43:32.848Z,6.95
2023-03-12T02:45:06.563Z,5.43
2023-03-12T02:46:42.435Z,4.80
2023-03-12T02:48:15.168Z,3.60
2023-03-12T02:49:47.901Z,3.30
2023-03-12T02:51:20.690Z,3.17
2023-03-12T02:52:53.387Z,3.80
2023-03-12T02:54:26.301Z,3.30
2023-03-12T02:55:59.418Z,4.10
2023-03-12T02:57:37.393Z,3.60
2023-03-12T02:59:11.693Z,3.78
2023-03-12T03:00:44.438Z,4.25
2023-03-12T03:02:17.177Z,3.45
2023-03-12T03:03:50.523Z,3.45
2023-03-12T03:05:22.303Z,4.20
2023-03-12T03:06:55.110Z,4.05
2023-03-12T03:08:27.782Z,4.20
2023-03-12T03:10:04.029Z,4.43
2023-03-12T03:11:37.008Z,4.03
2023-03-12T03:13:11.058Z,4.50
2023-03-12T03:14:43.748Z,4.60
2023-03-12T03:16:16.534Z,4.40
2023-03-12T03:17:48.316Z,3.97
2023-03-12T03:19:21.030Z,5.00
2023-03-12T03:20:57.112Z,5.13
2023-03-12T03:22:29.780Z,5.10
2023-03-12T03:24:02.537Z,5.03
2023-03-12T03:25:35.279Z,5.10
2023-03-12T03:27:08.155Z,5.78
2023-03-12T03:30:14.123Z,5.78
2023-03-12T03:31:46.870Z,6.38
2023-03-12T03:33:18.605Z,6.75
2023-03-12T03:34:51.313Z,7.85
2023-03-12T03:36:24.225Z,7.60
2023-03-12T03:37:56.012Z,7.40
2023-03-12T03:39:29.866Z,7.80
2023-03-12T03:41:02.879Z,7.22
2023-03-12T03:42:35.557Z,6.75
2023-03-12T03:44:09.660Z,6.78
2023-03-12T03:45:44.721Z,6.28
2023-03-12T03:47:17.409Z,6.72
2023-03-12T03:48:50.880Z,7.10
2023-03-12T03:50:23.619Z,6.90
2023-03-12T03:51:56.317Z,6.80
2023-03-12T03:53:29.241Z,6.85
2023-03-12T03:55:01.989Z,6.88
2023-03-12T03:56:34.710Z,6.90
2023-03-12T03:58:07.872Z,7.35
2023-03-12T03:59:41.879Z,7.57
2023-03-12T04:01:14.327Z,8.15
2023-03-12T04:02:47.025Z,7.55
2023-03-12T04:04:19.739Z,7.95
2023-03-12T04:05:55.971Z,8.25
2023-03-12T04:07:29.402Z,7.88
2023-03-12T04:09:02.118Z,7.85
2023-03-12T04:10:34.841Z,8.10
2023-03-12T04:12:08.104Z,8.45
2023-03-12T04:13:40.938Z,8.23
2023-03-12T04:15:15.058Z,7.10
2023-03-12T04:16:47.775Z,7.25
2023-03-12T04:18:20.897Z,6.80
2023-03-12T04:19:53.793Z,5.30
2023-03-12T04:21:26.483Z,5.28
2023-03-12T04:23:01.050Z,5.70
2023-03-12T04:24:33.742Z,5.72
2023-03-12T04:26:07.793Z,6.75
2023-03-12T04:27:40.478Z,7.55
2023-03-12T04:29:13.141Z,7.07
2023-03-12T04:30:53.870Z,7.07
2023-03-12T04:32:26.809Z,7.40
2023-03-12T04:33:59.536Z,7.32
2023-03-12T04:35:32.350Z,7.32
2023-03-12T04:37:05.135Z,7.60
2023-03-12T04:38:38.037Z,7.30
2023-03-12T04:40:12.213Z,7.55
2023-03-12T04:41:44.955Z,7.85
2023-03-12T04:43:20.788Z,7.85
2023-03-12T04:44:53.559Z,7.50
2023-03-12T04:46:27.790Z,7.07
2023-03-12T04:47:59.586Z,7.45
2023-03-12T04:49:32.330Z,7.55
2023-03-12T04:51:05.334Z,7.65
2023-03-12T04:52:38.287Z,7.90
2023-03-12T04:54:11.119Z,7.93
2023-03-12T04:55:44.023Z,7.32
2023-03-12T04:57:16.724Z,7.88
2023-03-12T04:58:49.489Z,8.15
2023-03-12T05:00:22.929Z,7.90
2023-03-12T05:01:57.079Z,7.03
2023-03-12T05:03:29.050Z,7.95
2023-03-12T05:05:01.856Z,7.47
2023-03-12T05:06:36.366Z,8.00
2023-03-12T05:08:09.098Z,8.05
2023-03-12T05:09:41.772Z,7.40
2023-03-12T05:11:15.181Z,7.47
2023-03-12T05:12:47.946Z,7.72
2023-03-12T05:14:21.035Z,7.63
2023-03-12T05:15:53.874Z,8.10
2023-03-12T05:17:27.912Z,8.93
2023-03-12T05:19:02.243Z,7.38
2023-03-12T05:20:34.951Z,7.95
2023-03-12T05:22:07.742Z,7.85
2023-03-12T05:23:42.520Z,7.38
2023-03-12T05:25:15.256Z,6.97
2023-03-12T05:26:47.944Z,6.18
2023-03-12T05:28:21.438Z,5.38
2023-03-12T05:29:54.250Z,5.10
2023-03-12T05:31:27.925Z,4.97
2023-03-12T05:33:01.948Z,5.40
2023-03-12T05:34:34.725Z,5.30
2023-03-12T05:36:08.549Z,4.28
2023-03-12T05:37:42.743Z,4.68
2023-03-12T05:39:15.437Z,4.28
2023-03-12T05:40:54.251Z,4.10
2023-03-12T05:42:26.946Z,3.55
2023-03-12T05:44:00.189Z,3.60
2023-03-12T05:45:33.768Z,3.95
2023-03-12T05:47:07.182Z,4.10
2023-03-12T05:48:41.230Z,4.15
2023-03-12T05:50:16.206Z,4.05
2023-03-12T05:51:49.351Z,5.07
2023-03-12T05:53:22.117Z,4.32
2023-03-12T05:54:54.945Z,5.00
2023-03-12T05:56:27.892Z,4.60
2023-03-12T05:58:00.593Z,4.85
2023-03-12T05:59:33.281Z,4.60
2023-03-12T06:01:12.287Z,4.72
2023-03-12T06:02:45.108Z,4.88
2023-03-12T06:04:19.122Z,6.07
2023-03-12T06:05:54.952Z,5.40
2023-03-12T06:07:27.697Z,5.05
2023-03-12T06:09:00.611Z,5.00
2023-03-12T06:10:33.592Z,6.00
2023-03-12T06:12:06.938Z,5.68
2023-03-12T06:13:39.713Z,5.40
2023-03-12T06:15:12.689Z,5.75
2023-03-12T06:16:44.611Z,5.78
2023-03-12T06:18:17.439Z,5.18
2023-03-12T06:19:53.682Z,5.28
2023-03-12T06:21:28.389Z,6.10
2023-03-12T06:23:01.093Z,6.03
2023-03-12T06:24:33.788Z,5.57
2023-03-12T06:26:07.112Z,5.80
2023-03-12T06:27:40.992Z,5.53
2023-03-12T06:29:13.687Z,6.18
2023-03-12T06:30:46.367Z,5.75
2023-03-12T06:32:19.206Z,5.65
2023-03-12T06:33:53.641Z,5.60
2023-03-12T06:35:27.806Z,6.22
2023-03-12T06:37:00.913Z,6.20
2023-03-12T06:38:34.071Z,6.43
2023-03-12T06:40:10.740Z,5.80
2023-03-12T06:41:43.455Z,6.00
2023-03-12T06:43:16.127Z,5.90
2023-03-12T06:44:48.807Z,6.30
2023-03-12T06:46:22.298Z,6.38
2023-03-12T06:47:55.072Z,6.18
2023-03-12T06:49:32.035Z,6.30
2023-03-12T06:51:06.927Z,5.97
2023-03-12T06:52:40.458Z,6.63
2023-03-12T06:54:13.128Z,7.10
2023-03-12T06:55:45.955Z,6.80
2023-03-12T06:57:18.649Z,7.47
2023-03-12T06:58:51.318Z,8.00
2023-03-12T07:00:24.226Z,9.00
2023-03-12T07:01:56.926Z,9.95
2023-03-12T07:03:29.673Z,10.23
2023-03-12T07:05:02.912Z,10.15
2023-03-12T07:06:36.973Z,10.45
2023-03-12T07:08:09.645Z,11.25
2023-03-12T07:09:43.354Z,11.13
2023-03-12T07:11:17.623Z,11.57
2023-03-12T07:12:50.617Z,12.10
2023-03-12T07:14:23.305Z,11.18
2023-03-12T07:15:56.080Z,11.25
2023-03-12T07:17:28.784Z,11.23
2023-03-12T07:19:01.663Z,10.75
2023-03-12T07:20:34.806Z,10.63
2023-03-12T07:22:08.804Z,10.32
2023-03-12T07:23:41.496Z,9.95
2023-03-12T07:25:14.322Z,10.80
2023-03-12T07:26:47.047Z,10.13
2023-03-12T07:28:20.612Z,9.80
2023-03-12T07:29:53.475Z,9.63
2023-03-12T07:31:26.211Z,10.20
2023-03-12T07:32:59.036Z,10.15
2023-03-12T07:34:32.014Z,10.85
2023-03-12T07:36:05.569Z,11.02
2023-03-12T07:37:40.044Z,10.02
2023-03-12T07:39:12.733Z,10.38
2023-03-12T07:40:45.593Z,11.57
2023-03-12T07:42:18.409Z,10.40
2023-03-12T07:43:51.649Z,10.30
2023-03-12T07:45:25.382Z,11.60
2023-03-12T07:46:59.167Z,12.57
2023-03-12T07:48:34.049Z,12.80
2023-03-12T07:50:07.579Z,13.25
2023-03-12T07:51:40.568Z,12.80
2023-03-12T07:53:14.582Z,13.13
2023-03-12T07:54:47.970Z,13.18
2023-03-12T07:56:20.836Z,14.63
2023-03-12T07:57:56.402Z,14.02
2023-03-12T07:59:29.121Z,13.88
2023-03-12T08:01:01.842Z,12.57
2023-03-12T08:02:35.348Z,12.95
2023-03-12T08:04:08.157Z,11.68
2023-03-12T08:05:41.025Z,10.15
2023-03-12T08:07:14.148Z,11.02
2023-03-12T08:08:48.277Z,11.23
2023-03-12T08:10:22.041Z,10.93
2023-03-12T08:11:54.741Z,11.18
2023-03-12T08:13:28.020Z,11.10
2023-03-12T08:15:00.827Z,11.77
2023-03-12T08:16:33.523Z,11.35
2023-03-12T08:18:06.316Z,10.85
2023-03-12T08:19:39.164Z,11.60
2023-03-12T08:21:12.235Z,11.55
2023-03-12T08:22:45.791Z,10.43
2023-03-12T08:24:20.911Z,10.23
2023-03-12T08:25:54.840Z,10.43
2023-03-12T08:27:27.651Z,9.75
2023-03-12T08:29:01.111Z,10.32
2023-03-12T08:30:33.834Z,10.48
2023-03-12T08:32:07.005Z,10.10
2023-03-12T08:33:43.314Z,9.88
2023-03-12T08:35:16.197Z,10.60
2023-03-12T08:36:48.965Z,10.45
2023-03-12T08:38:21.701Z,10.73
2023-03-12T08:39:55.734Z,10.52
2023-03-12T08:41:30.066Z,10.60
2023-03-12T08:43:02.838Z,10.85
2023-03-12T08:44:35.786Z,10.65
2023-03-12T08:46:10.979Z,10.15
2023-03-12T08:47:44.857Z,10.38
2023-03-12T08:49:17.939Z,10.63
2023-03-12T08:50:50.832Z,10.80
2023-03-12T08:52:23.525Z,10.65
2023-03-12T08:53:56.219Z,11.20
2023-03-12T08:55:30.577Z,11.27
2023-03-12T08:57:03.312Z,11.13
2023-03-12T08:58:36.013Z,10.60
2023-03-12T09:00:12.448Z,11.25
2023-03-12T09:01:45.134Z,11.38
2023-03-12T09:03:18.439Z,11.50
2023-03-12T09:04:51.353Z,11.18
2023-03-12T09:06:24.038Z,11.90
2023-03-12T09:07:57.150Z,14.07
2023-03-12T09:09:29.963Z,12.90
2023-03-12T09:11:04.014Z,12.18
2023-03-12T09:12:36.718Z,12.88
2023-03-12T09:16:03.921Z,12.40
2023-03-12T09:17:36.655Z,11.52
2023-03-12T09:19:09.428Z,12.57
2023-03-12T09:20:43.689Z,13.13
2023-03-12T09:22:17.183Z,13.75
2023-03-12T09:23:52.612Z,13.25
2023-03-12T09:25:25.718Z,13.57
2023-03-12T09:26:59.749Z,13.90
2023-03-12T09:28:32.431Z,12.70
2023-03-12T09:30:06.604Z,12.20
2023-03-12T09:31:39.405Z,13.02
2023-03-12T09:33:12.991Z,13.27
2023-03-12T09:34:45.701Z,13.18
2023-03-12T09:36:18.452Z,13.38
2023-03-12T09:37:51.739Z,14.23
2023-03-12T09:39:24.432Z,14.05
2023-03-12T09:40:57.137Z,13.23
2023-03-12T09:42:37.265Z,13.35
2023-03-12T09:44:17.504Z,13.07
2023-03-12T09:45:51.204Z,14.20
2023-03-12T09:47:29.327Z,14.57
2023-03-12T09:49:06.716Z,13.52
2023-03-12T09:50:43.718Z,13.73
2023-03-12T09:52:22.517Z,13.60
2023-03-12T09:53:58.036Z,12.93
2023-03-12T09:55:36.627Z,12.95
2023-03-12T09:57:15.396Z,13.60
2023-03-12T09:58:51.486Z,13.90
2023-03-12T10:00:30.509Z,13.55
2023-03-12T10:02:07.318Z,14.20
2023-03-12T10:04:05.028Z,14.38
2023-03-12T10:05:42.841Z,13.88
2023-03-12T10:07:20.678Z,14.85
2023-03-12T10:09:03.886Z,14.45
2023-03-12T10:10:49.554Z,14.38
2023-03-12T10:12:29.534Z,15.30
2023-03-12T10:14:23.058Z,14.65
2023-03-12T10:16:07.526Z,15.40
2023-03-12T10:17:53.570Z,14.60
2023-03-12T10:19:47.287Z,15.00
2023-03-12T10:21:26.258Z,14.93
2023-03-12T10:23:05.951Z,15.77
2023-03-12T10:24:49.930Z,15.23
2023-03-12T10:26:26.352Z,14.88
2023-03-12T10:28:03.241Z,17.40
2023-03-12T10:29:44.556Z,21.25
2023-03-12T10:31:22.565Z,22.52
2023-03-12T10:32:59.236Z,16.75
2023-03-12T10:34:37.513Z,15.88
2023-03-12T10:36:19.639Z,15.88
2023-03-12T10:37:55.238Z,17.48
2023-03-12T10:39:27.978Z,16.45
2023-03-12T10:41:00.672Z,16.08
2023-03-12T10:42:33.723Z,18.67
2023-03-12T10:44:09.884Z,17.75
2023-03-12T10:45:51.224Z,18.23
2023-03-12T10:47:35.582Z,17.73
2023-03-12T10:49:29.332Z,16.17
2023-03-12T10:51:04.705Z,16.83
2023-03-12T10:52:37.412Z,16.75
2023-03-12T10:54:23.276Z,16.85
2023-03-12T10:56:01.029Z,18.17
2023-03-12T10:57:41.168Z,16.42
2023-03-12T10:59:22.375Z,17.70
2023-03-12T11:01:01.096Z,17.27
2023-03-12T11:02:36.229Z,18.15
2023-03-12T11:04:15.869Z,16.75
2023-03-12T11:05:50.510Z,16.13
2023-03-12T11:07:26.669Z,16.13
2023-03-12T11:09:16.733Z,18.88
2023-03-12T11:10:50.217Z,16.52
2023-03-12T11:12:27.760Z,16.70
2023-03-12T11:14:08.843Z,17.02
2023-03-12T11:15:43.406Z,16.00
2023-03-12T11:17:23.999Z,16.00
2023-03-12T11:18:59.795Z,16.15
2023-03-12T11:20:32.498Z,16.08
2023-03-12T11:22:11.485Z,15.82
2023-03-12T11:23:48.121Z,14.43
2023-03-12T11:25:24.682Z,15.95
2023-03-12T11:27:02.980Z,15.98
2023-03-12T11:28:41.298Z,15.73
2023-03-12T11:30:17.468Z,15.57
2023-03-12T11:31:59.958Z,14.93
2023-03-12T11:33:34.733Z,15.25
2023-03-12T11:35:12.211Z,15.38
2023-03-12T11:36:53.490Z,13.85
2023-03-12T11:38:31.983Z,15.05
2023-03-12T11:40:26.473Z,14.52
2023-03-12T11:42:09.655Z,14.05
2023-03-12T11:43:55.762Z,13.98
2023-03-12T11:45:32.948Z,14.68
2023-03-12T11:47:16.591Z,15.05
2023-03-12T11:49:02.347Z,15.57
2023-03-12T11:50:48.132Z,14.63
2023-03-12T11:52:33.259Z,14.35
2023-03-12T11:54:33.967Z,14.93
2023-03-12T11:56:24.500Z,14.40
2023-03-12T11:58:10.563Z,17.27
2023-03-12T12:00:00.427Z,15.80
2023-03-12T12:01:42.606Z,15.13
2023-03-12T12:03:39.408Z,15.57
2023-03-12T12:05:31.400Z,13.93
2023-03-12T12:07:15.062Z,15.48
2023-03-12T12:09:07.917Z,14.38
2023-03-12T12:10:52.846Z,15.60
2023-03-12T12:12:44.803Z,14.88
2023-03-12T12:14:30.269Z,14.13
2023-03-12T12:16:14.624Z,14.05
2023-03-12T12:17:58.062Z,14.73
2023-03-12T12:19:48.301Z,14.40
2023-03-12T12:21:38.170Z,14.10
2023-03-12T12:23:18.900Z,13.02
2023-03-12T12:25:22.185Z,13.88
2023-03-12T12:27:01.149Z,14.13
2023-03-12T12:29:01.202Z,14.38
2023-03-12T12:30:49.569Z,14.63
2023-03-12T12:32:33.061Z,13.13
2023-03-12T12:34:23.702Z,14.00
2023-03-12T12:35:56.757Z,14.05
2023-03-12T12:37:52.955Z,15.00
2023-03-12T12:39:33.335Z,17.02
2023-03-12T12:41:12.118Z,15.85
2023-03-12T12:42:54.390Z,15.93
2023-03-12T12:44:32.025Z,14.82
2023-03-12T12:46:08.475Z,14.20
2023-03-12T12:47:45.383Z,15.40
2023-03-12T12:49:23.567Z,12.70
2023-03-12T12:50:59.524Z,11.75
2023-03-12T12:52:32.494Z,12.35
2023-03-12T12:54:12.998Z,11.77
2023-03-12T12:55:55.119Z,14.02
2023-03-12T12:57:32.811Z,14.35
2023-03-12T12:59:31.443Z,13.80
2023-03-12T13:01:05.130Z,14.43
2023-03-12T13:02:41.490Z,12.95
2023-03-12T13:04:21.633Z,14.45
2023-03-12T13:05:57.220Z,14.53
2023-03-12T13:07:34.863Z,12.50
2023-03-12T13:09:17.224Z,11.43
2023-03-12T13:10:57.914Z,12.48
2023-03-12T13:12:43.657Z,12.13
2023-03-12T13:14:39.125Z,11.67
2023-03-12T13:16:29.617Z,11.10
2023-03-12T13:18:09.999Z,10.57
2023-03-12T13:19:44.943Z,10.50
2023-03-12T13:21:27.134Z,12.48
2023-03-12T13:23:07.285Z,9.10
2023-03-12T13:24:47.264Z,9.00
2023-03-12T13:26:26.753Z,9.67
2023-03-12T13:28:01.369Z,8.80
2023-03-12T13:29:40.179Z,8.50
2023-03-12T13:31:35.583Z,7.33
2023-03-12T13:33:14.127Z,6.97
2023-03-12T13:34:49.909Z,7.53
2023-03-12T13:36:25.590Z,7.23
2023-03-12T13:38:04.068Z,7.17
2023-03-12T13:39:37.442Z,7.30
2023-03-12T13:41:11.524Z,6.70
2023-03-12T13:42:44.221Z,7.43
2023-03-12T13:44:32.951Z,7.13
2023-03-12T13:46:10.209Z,7.33
2023-03-12T13:47:44.843Z,7.80
2023-03-12T13:49:19.565Z,7.27
2023-03-12T13:50:54.516Z,7.93
2023-03-12T13:52:30.889Z,7.13
2023-03-12T13:54:04.693Z,7.85
2023-03-12T13:55:39.241Z,7.77
2023-03-12T13:57:24.485Z,7.37
2023-03-12T13:59:01.006Z,7.40
2023-03-12T14:00:39.154Z,8.07
2023-03-12T14:02:21.587Z,7.70
2023-03-12T14:03:56.569Z,7.23
2023-03-12T14:05:31.661Z,7.93
2023-03-12T14:07:29.763Z,7.43
2023-03-12T14:09:15.456Z,8.13
2023-03-12T14:10:58.059Z,9.17
2023-03-12T14:12:39.702Z,9.17
2023-03-12T14:14:33.782Z,8.33
2023-03-12T14:16:11.727Z,8.07
2023-03-12T14:17:45.478Z,8.93
2023-03-12T14:19:21.341Z,8.37
2023-03-12T14:20:58.795Z,8.30
2023-03-12T14:22:34.656Z,7.80
2023-03-12T14:24:11.790Z,8.17
2023-03-12T14:25:47.098Z,7.93
2023-03-12T14:27:24.964Z,7.90
2023-03-12T14:29:05.134Z,7.30
2023-03-12T14:30:45.598Z,7.20
2023-03-12T14:32:23.385Z,6.53
2023-03-12T14:33:59.297Z,6.27
2023-03-12T14:35:38.217Z,6.80
2023-03-12T14:37:16.413Z,6.60
2023-03-12T14:38:50.074Z,5.53
2023-03-12T14:40:26.720Z,5.37
2023-03-12T14:42:04.834Z,5.23
2023-03-12T14:43:37.595Z,5.40
2023-03-12T14:45:14.848Z,4.70
2023-03-12T14:46:56.258Z,5.70
2023-03-12T14:48:30.860Z,8.60
2023-03-12T14:50:03.893Z,5.93
2023-03-12T14:51:37.260Z,5.23
2023-03-12T14:53:14.455Z,4.77
2023-03-12T14:54:54.946Z,5.23
2023-03-12T14:56:30.438Z,5.33
2023-03-12T14:58:07.720Z,5.30
2023-03-12T14:59:40.576Z,4.87
2023-03-12T15:01:18.488Z,5.27
2023-03-12T15:02:54.256Z,4.90
2023-03-12T15:04:27.617Z,4.43
2023-03-12T15:06:00.901Z,4.50
2023-03-12T15:07:37.330Z,5.13
2023-03-12T15:09:17.851Z,4.43
2023-03-12T15:10:52.513Z,4.40
2023-03-12T15:12:27.068Z,4.10
2023-03-12T15:14:05.380Z,4.67
2023-03-12T15:15:42.380Z,4.60
2023-03-12T15:17:18.910Z,4.80
2023-03-12T15:18:52.875Z,4.87
2023-03-12T15:20:26.767Z,4.27
2023-03-12T15:22:00.231Z,5.53
2023-03-12T15:23:35.786Z,7.80
2023-03-12T15:25:22.175Z,5.00
2023-03-12T15:26:54.860Z,4.33
2023-03-12T15:28:29.343Z,4.20
2023-03-12T15:30:02.403Z,4.10
2023-03-12T15:31:42.549Z,4.00
2023-03-12T15:33:25.579Z,4.47
2023-03-12T15:34:59.285Z,3.67
2023-03-12T15:36:35.033Z,4.40
2023-03-12T15:38:15.775Z,3.63
2023-03-12T15:39:50.718Z,3.77
2023-03-12T15:41:27.437Z,3.93
2023-03-12T15:43:03.210Z,3.53
2023-03-12T15:44:45.658Z,4.00
2023-03-12T15:46:19.087Z,3.53
2023-03-12T15:47:54.148Z,4.27
2023-03-12T15:49:31.177Z,4.40
2023-03-12T15:51:04.651Z,3.50
2023-03-12T15:52:37.710Z,3.70
2023-03-12T15:54:27.196Z,3.47
2023-03-12T15:56:05.884Z,4.13
2023-03-12T15:57:47.463Z,3.63
2023-03-12T15:59:26.082Z,3.67
2023-03-12T16:01:12.570Z,3.97
2023-03-12T16:02:53.738Z,4.13
2023-03-12T16:04:27.757Z,4.33
2023-03-12T16:06:00.748Z,3.77
2023-03-12T16:07:33.484Z,3.90
2023-03-12T16:09:06.532Z,3.90
2023-03-12T16:10:39.812Z,3.80
2023-03-12T16:12:12.537Z,3.93
2023-03-12T16:13:46.533Z,3.67
2023-03-12T16:15:25.666Z,3.57
2023-03-12T16:16:58.380Z,3.67
2023-03-12T16:18:31.074Z,3.97
2023-03-12T16:20:05.988Z,3.97
2023-03-12T16:21:38.714Z,3.47
2023-03-12T16:23:11.526Z,4.27
2023-03-12T16:24:44.309Z,3.77
2023-03-12T16:26:17.034Z,3.47
2023-03-12T16:27:52.989Z,3.57
2023-03-12T16:29:32.824Z,5.27
2023-03-12T16:31:11.819Z,3.47
2023-03-12T16:32:44.549Z,3.50
2023-03-12T16:34:17.280Z,4.43
2023-03-12T16:35:52.095Z,3.73
2023-03-12T16:37:25.512Z,3.93
2023-03-12T16:38:58.307Z,3.77
2023-03-12T16:40:34.300Z,3.23
2023-03-12T16:42:14.896Z,3.70
2023-03-12T16:43:52.438Z,3.87
2023-03-12T16:45:27.680Z,3.87
2023-03-12T16:47:01.369Z,4.23
2023-03-12T16:48:34.317Z,3.73
2023-03-12T16:50:17.516Z,4.37
2023-03-12T16:51:51.541Z,3.63
2023-03-12T16:53:24.603Z,3.80
2023-03-12T16:54:57.283Z,3.47
2023-03-12T16:56:29.998Z,3.50
2023-03-12T16:58:05.120Z,3.40
2023-03-12T16:59:38.421Z,3.63
2023-03-12T17:01:14.198Z,3.97
2023-03-12T17:02:47.686Z,3.77
2023-03-12T17:04:20.532Z,4.07
2023-03-12T17:05:53.238Z,3.30
2023-03-12T17:07:27.275Z,3.77
2023-03-12T17:09:00.235Z,3.33
2023-03-12T17:10:33.062Z,3.50
2023-03-12T17:12:07.244Z,3.70
2023-03-12T17:13:39.941Z,3.73
2023-03-12T17:15:15.855Z,4.17
2023-03-12T17:16:49.183Z,3.83
2023-03-12T17:18:22.415Z,3.93
2023-03-12T17:19:55.693Z,3.53
2023-03-12T17:21:28.551Z,3.60
2023-03-12T17:23:02.910Z,3.23
2023-03-12T17:24:35.595Z,3.70
2023-03-12T17:26:08.406Z,4.00
2023-03-12T17:27:41.077Z,3.80
2023-03-12T17:29:13.786Z,3.93
2023-03-12T17:30:47.236Z,3.70
2023-03-12T17:32:20.292Z,3.63
2023-03-12T17:33:53.030Z,3.20
2023-03-12T17:35:25.738Z,3.70
2023-03-12T17:36:59.013Z,3.70
2023-03-12T17:38:34.086Z,3.57
2023-03-12T17:40:09.370Z,3.20
2023-03-12T17:41:42.524Z,3.60
2023-03-12T17:43:15.301Z,3.67
2023-03-12T17:44:48.268Z,3.93
2023-03-12T17:46:21.089Z,3.63
2023-03-12T17:47:53.841Z,4.27
2023-03-12T17:49:26.602Z,4.00
2023-03-12T17:50:59.306Z,3.70
2023-03-12T17:52:32.676Z,3.80
2023-03-12T17:54:06.785Z,4.53
2023-03-12T17:55:39.494Z,4.70
2023-03-12T17:57:12.209Z,4.60
2023-03-12T17:58:44.964Z,4.13
2023-03-12T18:00:18.712Z,4.33
2023-03-12T18:01:51.387Z,4.07
2023-03-12T18:03:24.202Z,4.00
2023-03-12T18:04:56.979Z,4.60
2023-03-12T18:06:29.802Z,4.70
2023-03-12T18:08:02.505Z,4.47
2023-03-12T18:09:36.740Z,4.10
2023-03-12T18:11:09.464Z,4.97
2023-03-12T18:12:42.335Z,5.77
2023-03-12T18:14:15.049Z,4.20
2023-03-12T18:15:52.727Z,4.67
2023-03-12T18:17:25.607Z,4.60
2023-03-12T18:18:58.392Z,6.17
2023-03-12T18:20:38.707Z,5.50
2023-03-12T18:22:14.418Z,6.03
2023-03-12T18:23:47.128Z,6.60
2023-03-12T18:25:21.273Z,9.23
2023-03-12T18:26:54.001Z,6.63
2023-03-12T18:28:27.336Z,5.37
2023-03-12T18:30:00.111Z,4.27
2023-03-12T18:31:32.888Z,5.30
2023-03-12T18:33:05.590Z,4.63
2023-03-12T18:34:42.054Z,4.37
2023-03-12T18:36:14.774Z,4.67
2023-03-12T18:37:47.543Z,4.63
2023-03-12T18:39:20.229Z,3.90
2023-03-12T18:41:03.381Z,4.30
2023-03-12T18:42:36.262Z,4.87
2023-03-12T18:44:08.954Z,4.23
2023-03-12T18:45:45.740Z,4.20
2023-03-12T18:47:18.542Z,4.90
2023-03-12T18:48:52.162Z,4.97
2023-03-12T18:50:25.252Z,3.90
2023-03-12T18:51:57.935Z,4.30
2023-03-12T18:53:32.943Z,3.60
2023-03-12T18:55:06.194Z,3.80
2023-03-12T18:56:40.899Z,4.30
2023-03-12T18:58:13.686Z,4.10
2023-03-12T18:59:47.090Z,3.63
2023-03-12T19:01:19.811Z,4.30
2023-03-12T19:02:52.558Z,3.77
2023-03-12T19:04:25.800Z,4.30
2023-03-12T19:06:02.981Z,4.63
2023-03-12T19:07:38.538Z,4.50
2023-03-12T19:09:11.714Z,4.47
2023-03-12T19:10:45.959Z,4.30
2023-03-12T19:12:20.004Z,4.20
2023-03-12T19:13:53.344Z,4.90
2023-03-12T19:15:26.198Z,4.07
2023-03-12T19:16:59.058Z,4.63
2023-03-12T19:18:31.959Z,3.60
2023-03-12T19:20:06.482Z,3.53
2023-03-12T19:21:39.173Z,3.87
2023-03-12T19:23:11.891Z,4.47
2023-03-12T19:24:44.830Z,3.90
2023-03-12T19:26:17.582Z,3.60
2023-03-12T19:27:51.610Z,4.10
2023-03-12T19:29:24.326Z,3.80
2023-03-12T19:31:01.403Z,4.00
2023-03-12T19:32:43.227Z,3.50
2023-03-12T19:34:17.736Z,3.40
2023-03-12T19:35:52.150Z,4.13
2023-03-12T19:37:24.992Z,4.10
2023-03-12T19:38:57.669Z,4.20
2023-03-12T19:40:30.360Z,4.13
2023-03-12T19:42:03.030Z,3.70
2023-03-12T19:43:37.582Z,3.93
2023-03-12T19:45:11.868Z,4.13
2023-03-12T19:46:44.554Z,4.30
2023-03-12T19:48:17.731Z,4.53
2023-03-12T19:49:50.406Z,3.50
2023-03-12T19:51:23.094Z,4.40
2023-03-12T19:52:55.770Z,3.80
2023-03-12T19:54:28.593Z,4.20
2023-03-12T19:56:01.355Z,3.97
2023-03-12T19:57:34.373Z,3.57
2023-03-12T19:59:08.386Z,4.00
2023-03-12T20:00:41.281Z,4.30
2023-03-12T20:02:14.877Z,3.63
2023-03-12T20:03:47.657Z,3.43
2023-03-12T20:05:20.360Z,4.13
2023-03-12T20:06:53.281Z,3.90
2023-03-12T20:08:31.111Z,3.37
2023-03-12T20:10:05.535Z,3.73
2023-03-12T20:11:38.239Z,3.93
2023-03-12T20:13:13.278Z,3.80
2023-03-12T20:14:47.686Z,3.67
2023-03-12T20:16:20.582Z,4.03
2023-03-12T20:17:56.710Z,4.23
2023-03-12T20:19:29.411Z,3.30
2023-03-12T20:21:02.237Z,3.88
2023-03-12T20:22:36.192Z,3.10
2023-03-12T20:24:08.877Z,3.87
2023-03-12T20:25:41.838Z,3.23
2023-03-12T20:27:14.902Z,3.90
2023-03-12T20:28:47.572Z,3.77
2023-03-12T20:30:21.700Z,3.63
2023-03-12T20:31:54.732Z,3.70
2023-03-12T20:33:27.543Z,3.57
2023-03-12T20:35:00.234Z,3.73
2023-03-12T20:36:32.945Z,3.50
2023-03-12T20:38:05.676Z,3.40
2023-03-12T20:39:38.432Z,3.93
2023-03-12T20:41:13.893Z,3.50
2023-03-12T20:42:46.564Z,3.50
2023-03-12T20:44:19.329Z,3.93
2023-03-12T20:45:53.376Z,3.50
2023-03-12T20:47:26.194Z,3.33
2023-03-12T20:48:58.950Z,4.03
2023-03-12T20:50:31.618Z,3.27
2023-03-12T20:52:04.460Z,3.67
2023-03-12T20:53:37.140Z,3.83
2023-03-12T20:55:10.243Z,3.03
2023-03-12T20:56:43.600Z,3.60
2023-03-12T20:58:16.379Z,3.35
2023-03-12T20:59:49.060Z,3.87
2023-03-12T21:01:23.173Z,4.90